sensor_id;sensor_type;location;lat;lon;timestamp;temperature;humidity
20345;DHT22;10330;48.816;9.278;2023-09-19T00:00:31;18.30;99.90
20345;DHT22;10330;48.816;9.278;2023-09-19T00:03:00;18.30;99.90
20345;DHT22;10330;48.816;9.278;2023-09-19T00:05:27;18.20;99.90
20345;DHT22;10330;48.816;9.278;2023-09-19T00:07:56;18.20;99.90
20345;DHT22;10330;48.816;9.278;2023-09-19T00:10:28;18.20;99.90
20345;DHT22;10330;48.816;9.278;2023-09-19T00:12:58;18.10;99.90
20345;DHT22;10330;48.816;9.278;2023-09-19T00:15:39;18.10;99.90
20345;DHT22;10330;48.816;9.278;2023-09-19T00:18:06;18.00;99.90
20345;DHT22;10330;48.816;9.278;2023-09-19T00:20:32;18.10;99.90
20345;DHT22;10330;48.816;9.278;2023-09-19T00:23:00;18.00;99.90
20345;DHT22;10330;48.816;9.278;2023-09-19T00:25:37;18.00;99.90
20345;DHT22;10330;48.816;9.278;2023-09-19T00:28:05;17.90;99.90
20345;DHT22;10330;48.816;9.278;2023-09-19T00:30:32;17.90;99.90
20345;DHT22;10330;48.816;9.278;2023-09-19T00:32:59;17.90;99.90
20345;DHT22;10330;48.816;9.278;2023-09-19T00:35:26;17.80;99.90
20345;DHT22;10330;48.816;9.278;2023-09-19T00:37:53;17.80;99.90
20345;DHT22;10330;48.816;9.278;2023-09-19T00:40:21;17.80;99.90
20345;DHT22;10330;48.816;9.278;2023-09-19T00:42:48;17.70;99.90
20345;DHT22;10330;48.816;9.278;2023-09-19T00:45:16;17.70;99.90
20345;DHT22;10330;48.816;9.278;2023-09-19T00:47:50;17.70;99.90
20345;DHT22;10330;48.816;9.278;2023-09-19T00:50:18;17.70;99.90
20345;DHT22;10330;48.816;9.278;2023-09-19T00:52:50;17.70;99.90
20345;DHT22;10330;48.816;9.278;2023-09-19T00:55:18;17.60;99.90
20345;DHT22;10330;48.816;9.278;2023-09-19T00:57:46;17.60;99.90
20345;DHT22;10330;48.816;9.278;2023-09-19T01:00:13;17.60;99.90
20345;DHT22;10330;48.816;9.278;2023-09-19T01:02:45;17.60;99.90
20345;DHT22;10330;48.816;9.278;2023-09-19T01:05:13;17.60;99.90
20345;DHT22;10330;48.816;9.278;2023-09-19T01:07:40;17.60;99.90
20345;DHT22;10330;48.816;9.278;2023-09-19T01:10:12;17.60;99.90
20345;DHT22;10330;48.816;9.278;2023-09-19T01:13:26;17.60;99.90
20345;DHT22;10330;48.816;9.278;2023-09-19T01:15:38;17.50;99.90
20345;DHT22;10330;48.816;9.278;2023-09-19T01:26:42;17.50;99.90
20345;DHT22;10330;48.816;9.278;2023-09-19T01:32:01;17.40;99.90
20345;DHT22;10330;48.816;9.278;2023-09-19T01:34:57;17.50;99.90
20345;DHT22;10330;48.816;9.278;2023-09-19T01:37:30;17.40;99.90
20345;DHT22;10330;48.816;9.278;2023-09-19T01:40:02;17.40;99.90
20345;DHT22;10330;48.816;9.278;2023-09-19T01:42:38;17.40;99.90
20345;DHT22;10330;48.816;9.278;2023-09-19T01:47:48;17.30;99.90
20345;DHT22;10330;48.816;9.278;2023-09-19T01:50:47;17.40;99.90
20345;DHT22;10330;48.816;9.278;2023-09-19T01:53:28;17.40;99.90
20345;DHT22;10330;48.816;9.278;2023-09-19T01:55:59;17.50;99.90
20345;DHT22;10330;48.816;9.278;2023-09-19T01:58:54;17.50;99.90
20345;DHT22;10330;48.816;9.278;2023-09-19T02:01:24;17.50;99.90
20345;DHT22;10330;48.816;9.278;2023-09-19T02:03:51;17.50;99.90
20345;DHT22;10330;48.816;9.278;2023-09-19T02:06:18;17.40;99.90
20345;DHT22;10330;48.816;9.278;2023-09-19T02:08:45;17.50;99.90
20345;DHT22;10330;48.816;9.278;2023-09-19T02:11:12;17.50;99.90
20345;DHT22;10330;48.816;9.278;2023-09-19T02:13:40;17.50;99.90
20345;DHT22;10330;48.816;9.278;2023-09-19T02:16:07;17.60;99.90
20345;DHT22;10330;48.816;9.278;2023-09-19T02:18:35;17.50;99.90
20345;DHT22;10330;48.816;9.278;2023-09-19T02:21:02;17.50;99.90
20345;DHT22;10330;48.816;9.278;2023-09-19T02:23:30;17.50;99.90
20345;DHT22;10330;48.816;9.278;2023-09-19T02:25:59;17.50;99.90
20345;DHT22;10330;48.816;9.278;2023-09-19T02:28:30;17.40;99.90
20345;DHT22;10330;48.816;9.278;2023-09-19T02:30:58;17.40;99.90
20345;DHT22;10330;48.816;9.278;2023-09-19T02:33:25;17.40;99.90
20345;DHT22;10330;48.816;9.278;2023-09-19T02:35:57;17.40;99.90
20345;DHT22;10330;48.816;9.278;2023-09-19T02:38:27;17.40;99.90
20345;DHT22;10330;48.816;9.278;2023-09-19T02:40:55;17.40;99.90
20345;DHT22;10330;48.816;9.278;2023-09-19T02:43:24;17.30;99.90
20345;DHT22;10330;48.816;9.278;2023-09-19T02:45:50;17.30;99.90
20345;DHT22;10330;48.816;9.278;2023-09-19T02:48:19;17.30;99.90
20345;DHT22;10330;48.816;9.278;2023-09-19T02:50:49;17.30;99.90
20345;DHT22;10330;48.816;9.278;2023-09-19T02:53:15;17.20;99.90
20345;DHT22;10330;48.816;9.278;2023-09-19T02:55:41;17.20;99.90
20345;DHT22;10330;48.816;9.278;2023-09-19T02:58:09;17.20;99.90
20345;DHT22;10330;48.816;9.278;2023-09-19T03:00:37;17.20;99.90
20345;DHT22;10330;48.816;9.278;2023-09-19T03:03:04;17.20;99.90
20345;DHT22;10330;48.816;9.278;2023-09-19T03:05:33;17.30;99.90
20345;DHT22;10330;48.816;9.278;2023-09-19T03:08:00;17.30;99.90
20345;DHT22;10330;48.816;9.278;2023-09-19T03:10:31;17.30;99.90
20345;DHT22;10330;48.816;9.278;2023-09-19T03:12:58;17.30;99.90
20345;DHT22;10330;48.816;9.278;2023-09-19T03:15:26;17.30;99.90
20345;DHT22;10330;48.816;9.278;2023-09-19T03:17:53;17.30;99.90
20345;DHT22;10330;48.816;9.278;2023-09-19T03:20:24;17.30;99.90
20345;DHT22;10330;48.816;9.278;2023-09-19T03:22:53;17.30;99.90
20345;DHT22;10330;48.816;9.278;2023-09-19T03:25:21;17.30;99.90
20345;DHT22;10330;48.816;9.278;2023-09-19T03:27:50;17.40;99.90
20345;DHT22;10330;48.816;9.278;2023-09-19T03:30:17;17.40;99.90
20345;DHT22;10330;48.816;9.278;2023-09-19T03:32:47;17.40;99.90
20345;DHT22;10330;48.816;9.278;2023-09-19T03:35:17;17.40;99.90
20345;DHT22;10330;48.816;9.278;2023-09-19T03:37:44;17.40;99.90
20345;DHT22;10330;48.816;9.278;2023-09-19T03:40:11;17.40;99.90
20345;DHT22;10330;48.816;9.278;2023-09-19T03:42:39;17.30;99.90
20345;DHT22;10330;48.816;9.278;2023-09-19T03:45:09;17.30;99.90
20345;DHT22;10330;48.816;9.278;2023-09-19T03:47:42;17.30;99.90
20345;DHT22;10330;48.816;9.278;2023-09-19T03:50:10;17.30;99.90
20345;DHT22;10330;48.816;9.278;2023-09-19T03:52:41;17.30;99.90
20345;DHT22;10330;48.816;9.278;2023-09-19T03:55:08;17.30;99.90
20345;DHT22;10330;48.816;9.278;2023-09-19T03:57:36;17.30;99.90
20345;DHT22;10330;48.816;9.278;2023-09-19T04:00:03;17.30;99.90
20345;DHT22;10330;48.816;9.278;2023-09-19T04:02:39;17.30;99.90
20345;DHT22;10330;48.816;9.278;2023-09-19T04:05:06;17.30;99.90
20345;DHT22;10330;48.816;9.278;2023-09-19T04:07:32;17.30;99.90
20345;DHT22;10330;48.816;9.278;2023-09-19T04:09:58;17.30;99.90
20345;DHT22;10330;48.816;9.278;2023-09-19T04:12:24;17.30;99.90
20345;DHT22;10330;48.816;9.278;2023-09-19T04:14:50;17.30;99.90
20345;DHT22;10330;48.816;9.278;2023-09-19T04:17:17;17.30;99.90
20345;DHT22;10330;48.816;9.278;2023-09-19T04:19:44;17.30;99.90
20345;DHT22;10330;48.816;9.278;2023-09-19T04:22:11;17.30;99.90
20345;DHT22;10330;48.816;9.278;2023-09-19T04:24:39;17.20;99.90
20345;DHT22;10330;48.816;9.278;2023-09-19T04:27:05;17.20;99.90
20345;DHT22;10330;48.816;9.278;2023-09-19T04:29:32;17.20;99.90
20345;DHT22;10330;48.816;9.278;2023-09-19T04:31:59;17.10;99.90
20345;DHT22;10330;48.816;9.278;2023-09-19T04:34:25;17.10;99.90
20345;DHT22;10330;48.816;9.278;2023-09-19T04:36:51;17.10;99.90
20345;DHT22;10330;48.816;9.278;2023-09-19T04:39:18;17.10;99.90
20345;DHT22;10330;48.816;9.278;2023-09-19T04:41:45;17.10;99.90
20345;DHT22;10330;48.816;9.278;2023-09-19T04:44:13;17.10;99.90
20345;DHT22;10330;48.816;9.278;2023-09-19T04:46:40;17.10;99.90
20345;DHT22;10330;48.816;9.278;2023-09-19T04:49:06;17.10;99.90
20345;DHT22;10330;48.816;9.278;2023-09-19T04:51:32;17.10;99.90
20345;DHT22;10330;48.816;9.278;2023-09-19T04:54:00;17.20;99.90
20345;DHT22;10330;48.816;9.278;2023-09-19T04:56:26;17.20;99.90
20345;DHT22;10330;48.816;9.278;2023-09-19T04:58:54;17.20;99.90
20345;DHT22;10330;48.816;9.278;2023-09-19T05:01:21;17.20;99.90
20345;DHT22;10330;48.816;9.278;2023-09-19T05:03:49;17.20;99.90
20345;DHT22;10330;48.816;9.278;2023-09-19T05:06:21;17.20;99.90
20345;DHT22;10330;48.816;9.278;2023-09-19T05:08:48;17.10;99.90
20345;DHT22;10330;48.816;9.278;2023-09-19T05:11:19;17.00;99.90
20345;DHT22;10330;48.816;9.278;2023-09-19T05:13:46;17.00;99.90
20345;DHT22;10330;48.816;9.278;2023-09-19T05:16:12;16.90;99.90
20345;DHT22;10330;48.816;9.278;2023-09-19T05:18:39;16.80;99.90
20345;DHT22;10330;48.816;9.278;2023-09-19T05:21:05;16.70;99.90
20345;DHT22;10330;48.816;9.278;2023-09-19T05:23:31;16.50;99.90
20345;DHT22;10330;48.816;9.278;2023-09-19T05:25:58;16.50;99.90
20345;DHT22;10330;48.816;9.278;2023-09-19T05:28:26;16.50;99.90
20345;DHT22;10330;48.816;9.278;2023-09-19T05:30:53;16.40;99.90
20345;DHT22;10330;48.816;9.278;2023-09-19T05:33:20;16.40;99.90
20345;DHT22;10330;48.816;9.278;2023-09-19T05:35:48;16.40;99.90
20345;DHT22;10330;48.816;9.278;2023-09-19T05:38:14;16.30;99.90
20345;DHT22;10330;48.816;9.278;2023-09-19T05:40:45;16.40;99.90
20345;DHT22;10330;48.816;9.278;2023-09-19T05:43:11;16.40;99.90
20345;DHT22;10330;48.816;9.278;2023-09-19T05:45:37;16.40;99.90
20345;DHT22;10330;48.816;9.278;2023-09-19T05:48:09;16.40;99.90
20345;DHT22;10330;48.816;9.278;2023-09-19T05:50:35;16.40;99.90
20345;DHT22;10330;48.816;9.278;2023-09-19T05:53:02;16.30;99.90
20345;DHT22;10330;48.816;9.278;2023-09-19T05:55:30;16.20;99.90
20345;DHT22;10330;48.816;9.278;2023-09-19T05:57:56;16.20;99.90
20345;DHT22;10330;48.816;9.278;2023-09-19T06:00:23;16.30;99.90
20345;DHT22;10330;48.816;9.278;2023-09-19T06:02:53;16.00;99.90
20345;DHT22;10330;48.816;9.278;2023-09-19T06:05:22;15.90;99.90
20345;DHT22;10330;48.816;9.278;2023-09-19T06:07:48;15.90;99.90
20345;DHT22;10330;48.816;9.278;2023-09-19T06:10:14;15.80;99.90
20345;DHT22;10330;48.816;9.278;2023-09-19T06:12:44;15.80;99.90
20345;DHT22;10330;48.816;9.278;2023-09-19T06:15:11;15.70;99.90
20345;DHT22;10330;48.816;9.278;2023-09-19T06:17:43;15.60;99.90
20345;DHT22;10330;48.816;9.278;2023-09-19T06:20:12;15.40;99.90
20345;DHT22;10330;48.816;9.278;2023-09-19T06:22:42;15.40;99.90
20345;DHT22;10330;48.816;9.278;2023-09-19T06:25:09;15.30;99.90
20345;DHT22;10330;48.816;9.278;2023-09-19T06:27:57;15.30;99.90
20345;DHT22;10330;48.816;9.278;2023-09-19T06:30:39;15.30;99.90
20345;DHT22;10330;48.816;9.278;2023-09-19T06:33:06;15.30;99.90
20345;DHT22;10330;48.816;9.278;2023-09-19T06:35:43;15.30;99.90
20345;DHT22;10330;48.816;9.278;2023-09-19T06:38:17;15.40;99.90
20345;DHT22;10330;48.816;9.278;2023-09-19T06:40:45;15.50;99.90
20345;DHT22;10330;48.816;9.278;2023-09-19T06:43:11;15.60;99.90
20345;DHT22;10330;48.816;9.278;2023-09-19T06:45:38;15.70;99.90
20345;DHT22;10330;48.816;9.278;2023-09-19T06:48:04;15.70;99.90
20345;DHT22;10330;48.816;9.278;2023-09-19T06:50:31;15.80;99.90
20345;DHT22;10330;48.816;9.278;2023-09-19T06:52:59;15.80;99.90
20345;DHT22;10330;48.816;9.278;2023-09-19T06:55:26;16.00;99.90
20345;DHT22;10330;48.816;9.278;2023-09-19T06:57:54;16.00;99.90
20345;DHT22;10330;48.816;9.278;2023-09-19T07:00:20;16.10;99.90
20345;DHT22;10330;48.816;9.278;2023-09-19T07:03:00;16.10;99.90
20345;DHT22;10330;48.816;9.278;2023-09-19T07:05:27;16.10;99.90
20345;DHT22;10330;48.816;9.278;2023-09-19T07:07:54;16.20;99.90
20345;DHT22;10330;48.816;9.278;2023-09-19T07:10:25;16.20;99.90
20345;DHT22;10330;48.816;9.278;2023-09-19T07:12:57;16.40;99.90
20345;DHT22;10330;48.816;9.278;2023-09-19T07:15:27;16.40;99.90
20345;DHT22;10330;48.816;9.278;2023-09-19T07:17:54;16.50;99.90
20345;DHT22;10330;48.816;9.278;2023-09-19T07:20:23;16.50;99.90
20345;DHT22;10330;48.816;9.278;2023-09-19T07:22:51;16.50;99.90
20345;DHT22;10330;48.816;9.278;2023-09-19T07:25:17;16.60;99.90
20345;DHT22;10330;48.816;9.278;2023-09-19T07:27:44;16.70;99.90
20345;DHT22;10330;48.816;9.278;2023-09-19T07:30:11;16.70;99.90
20345;DHT22;10330;48.816;9.278;2023-09-19T07:32:41;16.70;99.90
20345;DHT22;10330;48.816;9.278;2023-09-19T07:35:08;16.70;99.90
20345;DHT22;10330;48.816;9.278;2023-09-19T07:37:34;16.80;99.90
20345;DHT22;10330;48.816;9.278;2023-09-19T07:40:06;16.90;99.90
20345;DHT22;10330;48.816;9.278;2023-09-19T07:42:41;16.80;99.90
20345;DHT22;10330;48.816;9.278;2023-09-19T07:45:13;16.80;99.90
20345;DHT22;10330;48.816;9.278;2023-09-19T07:47:47;16.90;99.90
20345;DHT22;10330;48.816;9.278;2023-09-19T07:50:14;17.00;99.90
20345;DHT22;10330;48.816;9.278;2023-09-19T07:52:42;17.00;99.90
20345;DHT22;10330;48.816;9.278;2023-09-19T07:55:09;17.10;99.90
20345;DHT22;10330;48.816;9.278;2023-09-19T07:57:37;17.10;99.90
20345;DHT22;10330;48.816;9.278;2023-09-19T08:00:04;17.20;99.90
20345;DHT22;10330;48.816;9.278;2023-09-19T08:02:37;17.20;99.90
20345;DHT22;10330;48.816;9.278;2023-09-19T08:05:04;17.30;99.90
20345;DHT22;10330;48.816;9.278;2023-09-19T08:07:41;17.20;99.90
20345;DHT22;10330;48.816;9.278;2023-09-19T08:10:08;17.30;99.90
20345;DHT22;10330;48.816;9.278;2023-09-19T08:12:39;17.30;99.90
20345;DHT22;10330;48.816;9.278;2023-09-19T08:15:16;17.30;99.90
20345;DHT22;10330;48.816;9.278;2023-09-19T08:17:43;17.40;99.90
20345;DHT22;10330;48.816;9.278;2023-09-19T08:20:10;17.50;99.90
20345;DHT22;10330;48.816;9.278;2023-09-19T08:22:49;17.70;99.90
20345;DHT22;10330;48.816;9.278;2023-09-19T08:25:17;17.70;99.90
20345;DHT22;10330;48.816;9.278;2023-09-19T08:27:46;17.80;99.90
20345;DHT22;10330;48.816;9.278;2023-09-19T08:30:15;17.90;99.90
20345;DHT22;10330;48.816;9.278;2023-09-19T08:32:42;18.00;99.90
20345;DHT22;10330;48.816;9.278;2023-09-19T08:35:12;18.10;99.90
20345;DHT22;10330;48.816;9.278;2023-09-19T08:37:38;18.20;99.90
20345;DHT22;10330;48.816;9.278;2023-09-19T08:40:04;18.20;99.90
20345;DHT22;10330;48.816;9.278;2023-09-19T08:42:51;18.30;99.90
20345;DHT22;10330;48.816;9.278;2023-09-19T08:45:23;18.30;99.90
20345;DHT22;10330;48.816;9.278;2023-09-19T08:50:43;18.40;99.90
20345;DHT22;10330;48.816;9.278;2023-09-19T08:53:19;18.40;99.90
20345;DHT22;10330;48.816;9.278;2023-09-19T08:55:47;18.50;99.90
20345;DHT22;10330;48.816;9.278;2023-09-19T08:58:17;18.50;99.90
20345;DHT22;10330;48.816;9.278;2023-09-19T09:00:48;18.50;99.90
20345;DHT22;10330;48.816;9.278;2023-09-19T09:03:18;18.40;99.90
20345;DHT22;10330;48.816;9.278;2023-09-19T09:05:46;18.50;99.90
20345;DHT22;10330;48.816;9.278;2023-09-19T09:08:13;18.60;99.90
20345;DHT22;10330;48.816;9.278;2023-09-19T09:10:40;18.70;99.90
20345;DHT22;10330;48.816;9.278;2023-09-19T09:13:09;18.80;99.90
20345;DHT22;10330;48.816;9.278;2023-09-19T09:15:36;18.90;99.90
20345;DHT22;10330;48.816;9.278;2023-09-19T09:18:04;19.00;99.90
20345;DHT22;10330;48.816;9.278;2023-09-19T09:20:31;19.10;99.90
20345;DHT22;10330;48.816;9.278;2023-09-19T09:22:57;19.20;99.90
20345;DHT22;10330;48.816;9.278;2023-09-19T09:28:22;19.30;99.90
20345;DHT22;10330;48.816;9.278;2023-09-19T09:30:49;19.20;99.90
20345;DHT22;10330;48.816;9.278;2023-09-19T09:33:18;19.40;99.90
20345;DHT22;10330;48.816;9.278;2023-09-19T09:38:22;19.50;99.90
20345;DHT22;10330;48.816;9.278;2023-09-19T09:40:57;19.60;99.90
20345;DHT22;10330;48.816;9.278;2023-09-19T09:43:37;19.80;99.90
20345;DHT22;10330;48.816;9.278;2023-09-19T09:51:44;20.10;99.90
20345;DHT22;10330;48.816;9.278;2023-09-19T09:54:24;20.20;99.90
20345;DHT22;10330;48.816;9.278;2023-09-19T09:56:55;20.20;99.90
20345;DHT22;10330;48.816;9.278;2023-09-19T09:59:50;20.20;99.90
20345;DHT22;10330;48.816;9.278;2023-09-19T10:02:18;20.30;99.90
20345;DHT22;10330;48.816;9.278;2023-09-19T10:04:52;20.20;99.90
20345;DHT22;10330;48.816;9.278;2023-09-19T10:07:30;20.20;99.90
20345;DHT22;10330;48.816;9.278;2023-09-19T10:10:02;20.30;99.90
20345;DHT22;10330;48.816;9.278;2023-09-19T10:12:47;20.40;99.90
20345;DHT22;10330;48.816;9.278;2023-09-19T10:15:18;20.50;99.90
20345;DHT22;10330;48.816;9.278;2023-09-19T10:17:47;20.50;99.90
20345;DHT22;10330;48.816;9.278;2023-09-19T10:20:15;20.30;99.90
20345;DHT22;10330;48.816;9.278;2023-09-19T10:23:07;20.30;99.90
20345;DHT22;10330;48.816;9.278;2023-09-19T10:25:41;20.30;99.90
20345;DHT22;10330;48.816;9.278;2023-09-19T10:28:11;20.20;99.90
20345;DHT22;10330;48.816;9.278;2023-09-19T10:30:50;20.20;99.90
20345;DHT22;10330;48.816;9.278;2023-09-19T10:33:18;20.10;99.90
20345;DHT22;10330;48.816;9.278;2023-09-19T10:35:49;20.30;99.90
20345;DHT22;10330;48.816;9.278;2023-09-19T10:38:23;20.20;99.90
20345;DHT22;10330;48.816;9.278;2023-09-19T10:40:51;20.30;99.90
20345;DHT22;10330;48.816;9.278;2023-09-19T10:43:20;20.40;99.90
20345;DHT22;10330;48.816;9.278;2023-09-19T10:45:51;20.60;99.90
20345;DHT22;10330;48.816;9.278;2023-09-19T10:48:20;20.80;99.90
20345;DHT22;10330;48.816;9.278;2023-09-19T10:51:19;21.00;99.90
20345;DHT22;10330;48.816;9.278;2023-09-19T10:56:10;21.10;99.90
20345;DHT22;10330;48.816;9.278;2023-09-19T10:58:43;21.30;99.90
20345;DHT22;10330;48.816;9.278;2023-09-19T11:01:11;21.40;99.90
20345;DHT22;10330;48.816;9.278;2023-09-19T11:03:38;21.30;99.90
20345;DHT22;10330;48.816;9.278;2023-09-19T11:06:18;21.40;99.90
20345;DHT22;10330;48.816;9.278;2023-09-19T11:09:02;21.60;99.90
20345;DHT22;10330;48.816;9.278;2023-09-19T11:11:42;22.00;99.90
20345;DHT22;10330;48.816;9.278;2023-09-19T11:14:37;22.10;99.90
20345;DHT22;10330;48.816;9.278;2023-09-19T11:30:43;22.30;99.90
20345;DHT22;10330;48.816;9.278;2023-09-19T11:33:29;22.40;99.90
20345;DHT22;10330;48.816;9.278;2023-09-19T11:36:08;22.40;99.90
20345;DHT22;10330;48.816;9.278;2023-09-19T11:49:19;23.30;99.90
20345;DHT22;10330;48.816;9.278;2023-09-19T11:51:56;23.10;99.90
20345;DHT22;10330;48.816;9.278;2023-09-19T11:54:23;23.30;99.90
20345;DHT22;10330;48.816;9.278;2023-09-19T11:56:55;23.40;99.90
20345;DHT22;10330;48.816;9.278;2023-09-19T11:59:23;23.80;99.90
20345;DHT22;10330;48.816;9.278;2023-09-19T12:01:57;23.90;99.90
20345;DHT22;10330;48.816;9.278;2023-09-19T12:04:34;23.90;99.90
20345;DHT22;10330;48.816;9.278;2023-09-19T12:07:08;23.70;99.90
20345;DHT22;10330;48.816;9.278;2023-09-19T12:09:51;23.20;99.90
20345;DHT22;10330;48.816;9.278;2023-09-19T12:12:29;23.50;99.90
20345;DHT22;10330;48.816;9.278;2023-09-19T12:15:11;24.10;99.90
20345;DHT22;10330;48.816;9.278;2023-09-19T12:17:39;23.90;99.90
20345;DHT22;10330;48.816;9.278;2023-09-19T12:20:10;23.10;99.90
20345;DHT22;10330;48.816;9.278;2023-09-19T12:22:44;23.20;99.90
20345;DHT22;10330;48.816;9.278;2023-09-19T12:25:11;23.40;99.90
20345;DHT22;10330;48.816;9.278;2023-09-19T12:27:45;23.20;99.90
20345;DHT22;10330;48.816;9.278;2023-09-19T12:30:16;23.70;99.90
20345;DHT22;10330;48.816;9.278;2023-09-19T12:36:23;23.40;99.90
20345;DHT22;10330;48.816;9.278;2023-09-19T12:39:00;23.60;99.90
20345;DHT22;10330;48.816;9.278;2023-09-19T12:41:27;24.30;99.90
20345;DHT22;10330;48.816;9.278;2023-09-19T12:43:54;24.50;99.90
20345;DHT22;10330;48.816;9.278;2023-09-19T12:46:23;24.30;99.90
20345;DHT22;10330;48.816;9.278;2023-09-19T12:49:17;24.30;99.90
20345;DHT22;10330;48.816;9.278;2023-09-19T12:52:10;24.50;99.90
20345;DHT22;10330;48.816;9.278;2023-09-19T12:54:40;24.20;99.90
20345;DHT22;10330;48.816;9.278;2023-09-19T12:57:24;24.30;99.90
20345;DHT22;10330;48.816;9.278;2023-09-19T12:59:52;24.60;99.90
20345;DHT22;10330;48.816;9.278;2023-09-19T13:02:19;24.60;99.90
20345;DHT22;10330;48.816;9.278;2023-09-19T13:04:55;24.70;99.90
20345;DHT22;10330;48.816;9.278;2023-09-19T13:07:45;25.40;99.90
20345;DHT22;10330;48.816;9.278;2023-09-19T13:10:15;26.00;99.90
20345;DHT22;10330;48.816;9.278;2023-09-19T13:12:43;26.20;99.90
20345;DHT22;10330;48.816;9.278;2023-09-19T13:15:15;26.30;99.90
20345;DHT22;10330;48.816;9.278;2023-09-19T13:17:47;25.80;99.90
20345;DHT22;10330;48.816;9.278;2023-09-19T13:20:24;25.30;99.90
20345;DHT22;10330;48.816;9.278;2023-09-19T13:22:54;25.00;99.90
20345;DHT22;10330;48.816;9.278;2023-09-19T13:25:24;24.60;99.90
20345;DHT22;10330;48.816;9.278;2023-09-19T13:27:53;24.00;99.90
20345;DHT22;10330;48.816;9.278;2023-09-19T13:30:31;23.80;99.90
20345;DHT22;10330;48.816;9.278;2023-09-19T13:33:11;23.30;99.90
20345;DHT22;10330;48.816;9.278;2023-09-19T13:35:44;23.60;99.90
20345;DHT22;10330;48.816;9.278;2023-09-19T13:38:13;24.00;99.90
20345;DHT22;10330;48.816;9.278;2023-09-19T13:40:39;24.20;99.90
20345;DHT22;10330;48.816;9.278;2023-09-19T13:43:08;24.60;99.90
20345;DHT22;10330;48.816;9.278;2023-09-19T13:45:34;24.60;99.90
20345;DHT22;10330;48.816;9.278;2023-09-19T13:48:01;25.10;99.90
20345;DHT22;10330;48.816;9.278;2023-09-19T13:50:30;24.80;99.90
20345;DHT22;10330;48.816;9.278;2023-09-19T13:53:02;25.10;99.90
20345;DHT22;10330;48.816;9.278;2023-09-19T13:55:29;25.30;99.90
20345;DHT22;10330;48.816;9.278;2023-09-19T13:57:56;25.60;99.90
20345;DHT22;10330;48.816;9.278;2023-09-19T14:00:26;25.50;99.90
20345;DHT22;10330;48.816;9.278;2023-09-19T14:03:08;26.00;99.90
20345;DHT22;10330;48.816;9.278;2023-09-19T14:06:15;24.80;99.90
20345;DHT22;10330;48.816;9.278;2023-09-19T14:18:13;25.20;99.90
20345;DHT22;10330;48.816;9.278;2023-09-19T14:20:40;24.60;99.90
20345;DHT22;10330;48.816;9.278;2023-09-19T14:28:53;24.90;99.90
20345;DHT22;10330;48.816;9.278;2023-09-19T14:37:23;24.30;99.90
20345;DHT22;10330;48.816;9.278;2023-09-19T14:44:20;23.80;99.90
20345;DHT22;10330;48.816;9.278;2023-09-19T14:47:51;23.90;99.90
20345;DHT22;10330;48.816;9.278;2023-09-19T14:51:07;23.90;99.90
20345;DHT22;10330;48.816;9.278;2023-09-19T14:53:46;23.80;99.90
20345;DHT22;10330;48.816;9.278;2023-09-19T14:56:38;24.10;99.90
20345;DHT22;10330;48.816;9.278;2023-09-19T15:00:11;24.70;99.90
20345;DHT22;10330;48.816;9.278;2023-09-19T15:02:49;25.00;99.90
20345;DHT22;10330;48.816;9.278;2023-09-19T15:13:12;24.30;99.90
20345;DHT22;10330;48.816;9.278;2023-09-19T15:24:03;23.90;99.90
20345;DHT22;10330;48.816;9.278;2023-09-19T15:26:56;23.60;99.90
20345;DHT22;10330;48.816;9.278;2023-09-19T15:29:41;23.50;99.90
20345;DHT22;10330;48.816;9.278;2023-09-19T15:32:23;23.60;99.90
20345;DHT22;10330;48.816;9.278;2023-09-19T15:34:52;23.70;99.90
20345;DHT22;10330;48.816;9.278;2023-09-19T15:37:19;23.90;99.90
20345;DHT22;10330;48.816;9.278;2023-09-19T15:40:07;24.00;99.90
20345;DHT22;10330;48.816;9.278;2023-09-19T15:42:41;24.10;99.90
20345;DHT22;10330;48.816;9.278;2023-09-19T15:45:34;24.00;99.90
20345;DHT22;10330;48.816;9.278;2023-09-19T15:48:08;24.10;99.90
20345;DHT22;10330;48.816;9.278;2023-09-19T15:50:40;24.00;99.90
20345;DHT22;10330;48.816;9.278;2023-09-19T15:53:08;23.50;99.90
20345;DHT22;10330;48.816;9.278;2023-09-19T15:55:42;23.40;99.90
20345;DHT22;10330;48.816;9.278;2023-09-19T15:58:09;23.50;99.90
20345;DHT22;10330;48.816;9.278;2023-09-19T16:00:40;23.10;99.90
20345;DHT22;10330;48.816;9.278;2023-09-19T16:49:40;22.20;99.90
20345;DHT22;10330;48.816;9.278;2023-09-19T18:01:57;20.70;99.90
20345;DHT22;10330;48.816;9.278;2023-09-19T18:31:54;20.00;99.90
20345;DHT22;10330;48.816;9.278;2023-09-19T18:34:21;20.00;99.90
20345;DHT22;10330;48.816;9.278;2023-09-19T18:36:47;19.90;99.90
20345;DHT22;10330;48.816;9.278;2023-09-19T18:39:13;19.90;99.90
20345;DHT22;10330;48.816;9.278;2023-09-19T18:41:50;19.90;99.90
20345;DHT22;10330;48.816;9.278;2023-09-19T18:44:23;19.80;99.90
20345;DHT22;10330;48.816;9.278;2023-09-19T18:46:49;19.80;99.90
20345;DHT22;10330;48.816;9.278;2023-09-19T18:49:15;19.70;99.90
20345;DHT22;10330;48.816;9.278;2023-09-19T18:51:43;19.70;99.90
20345;DHT22;10330;48.816;9.278;2023-09-19T18:54:10;19.70;99.90
20345;DHT22;10330;48.816;9.278;2023-09-19T18:56:39;19.70;99.90
20345;DHT22;10330;48.816;9.278;2023-09-19T18:59:07;19.60;99.90
20345;DHT22;10330;48.816;9.278;2023-09-19T19:01:35;19.60;99.90
20345;DHT22;10330;48.816;9.278;2023-09-19T19:04:01;19.50;99.90
20345;DHT22;10330;48.816;9.278;2023-09-19T19:06:28;19.40;99.90
20345;DHT22;10330;48.816;9.278;2023-09-19T19:08:58;19.30;99.90
20345;DHT22;10330;48.816;9.278;2023-09-19T19:11:25;19.20;99.90
20345;DHT22;10330;48.816;9.278;2023-09-19T19:13:55;19.20;99.90
20345;DHT22;10330;48.816;9.278;2023-09-19T19:16:21;19.20;99.90
20345;DHT22;10330;48.816;9.278;2023-09-19T19:18:48;19.30;99.90
20345;DHT22;10330;48.816;9.278;2023-09-19T19:21:15;19.30;99.90
20345;DHT22;10330;48.816;9.278;2023-09-19T19:23:42;19.20;99.90
20345;DHT22;10330;48.816;9.278;2023-09-19T19:26:09;19.20;99.90
20345;DHT22;10330;48.816;9.278;2023-09-19T19:28:40;19.20;99.90
20345;DHT22;10330;48.816;9.278;2023-09-19T19:31:08;19.10;99.90
20345;DHT22;10330;48.816;9.278;2023-09-19T19:33:36;19.00;99.90
20345;DHT22;10330;48.816;9.278;2023-09-19T19:36:07;19.00;99.90
20345;DHT22;10330;48.816;9.278;2023-09-19T19:38:35;19.00;99.90
20345;DHT22;10330;48.816;9.278;2023-09-19T19:41:03;19.00;99.90
20345;DHT22;10330;48.816;9.278;2023-09-19T19:43:30;19.00;99.90
20345;DHT22;10330;48.816;9.278;2023-09-19T19:45:58;18.90;99.90
20345;DHT22;10330;48.816;9.278;2023-09-19T19:48:25;18.80;99.90
20345;DHT22;10330;48.816;9.278;2023-09-19T19:50:52;18.80;99.90
20345;DHT22;10330;48.816;9.278;2023-09-19T19:53:23;18.70;99.90
20345;DHT22;10330;48.816;9.278;2023-09-19T19:55:50;18.70;99.90
20345;DHT22;10330;48.816;9.278;2023-09-19T19:58:17;18.70;99.90